Main page
METAR-TAF:

METAR-TAF

Airports :

Christchurch International Airport

Christchurch, New Zealand

latitude: 43-29S, longitude: 172-33E, elevation: 38 m

Current weather observation

The report was made 18 minutes ago, at 21:00 UTC
Wind 5 kt from the South/Southwest
Temperature 8°C
Humidity 76%
Pressure 998 hPa
Visibility 10 km or more

METAR: NZCH 202100Z AUTO 21005KT 9999 NCD 08/04 Q0998 NOSIG

Time: 09:18 (21:18 UTC)

Forecast

The report was made 1 hour and 22 minutes ago, at 19:56 UTC
Forecast valid from 20 at 19 UTC to 21 at 18 UTC
Wind 12 kt from the West/Southwest
Visibility 10 km or more
Scattered clouds at a height of 6000 ft
light rain showers
From 21 at 0000 UTC
Wind 10 kt from the North/Northeast
Visibility 10 km or more
no clouds below 1500 m and no cumulonimbus

TAF: NZCH 201956Z 2019/2118 24012KT 9999 -SHRA SCT060 FM210000 02010KT CAVOK

Weather observations and forecasts of more than 4000 airports (METAR and TAF reports).

The available stations are represented by yellow and red dots on the map.

Hover mouse over dot to see the name of the station.

Then click to see weather observations and forecasts.

To change the map : click on the green buttons with a black cross to zoom in, on the green button with a dash to zoom out, or on the green arrows for adjacent maps.


METAR-TAF: